sensor_id;sensor_type;location;lat;lon;timestamp;P1;durP1;ratioP1;P2;durP2;ratioP2
48767;SDS011;34933;40.968;14.538;2022-10-24T00:02:25;19.85;;;11.80;;
48767;SDS011;34933;40.968;14.538;2022-10-24T00:05:11;14.98;;;10.82;;
48767;SDS011;34933;40.968;14.538;2022-10-24T00:07:56;16.60;;;9.88;;
48767;SDS011;34933;40.968;14.538;2022-10-24T00:10:45;15.20;;;10.75;;
48767;SDS011;34933;40.968;14.538;2022-10-24T00:13:30;17.88;;;11.27;;
48767;SDS011;34933;40.968;14.538;2022-10-24T00:16:16;16.15;;;10.98;;
48767;SDS011;34933;40.968;14.538;2022-10-24T00:19:02;19.92;;;11.68;;
48767;SDS011;34933;40.968;14.538;2022-10-24T00:21:47;18.25;;;11.27;;
48767;SDS011;34933;40.968;14.538;2022-10-24T00:24:31;21.85;;;10.98;;
48767;SDS011;34933;40.968;14.538;2022-10-24T00:27:16;13.60;;;10.30;;
48767;SDS011;34933;40.968;14.538;2022-10-24T00:30:01;17.25;;;10.00;;
48767;SDS011;34933;40.968;14.538;2022-10-24T00:32:47;18.33;;;11.13;;
48767;SDS011;34933;40.968;14.538;2022-10-24T00:35:33;18.25;;;11.60;;
48767;SDS011;34933;40.968;14.538;2022-10-24T00:38:18;15.10;;;11.10;;
48767;SDS011;34933;40.968;14.538;2022-10-24T00:41:03;15.07;;;11.38;;
48767;SDS011;34933;40.968;14.538;2022-10-24T00:43:48;20.55;;;11.95;;
48767;SDS011;34933;40.968;14.538;2022-10-24T00:46:32;14.45;;;11.40;;
48767;SDS011;34933;40.968;14.538;2022-10-24T00:49:18;15.93;;;11.60;;
48767;SDS011;34933;40.968;14.538;2022-10-24T00:52:07;18.67;;;11.82;;
48767;SDS011;34933;40.968;14.538;2022-10-24T00:54:53;21.52;;;11.65;;
48767;SDS011;34933;40.968;14.538;2022-10-24T00:57:42;17.88;;;11.68;;
48767;SDS011;34933;40.968;14.538;2022-10-24T01:00:33;12.18;;;10.45;;
48767;SDS011;34933;40.968;14.538;2022-10-24T01:03:18;16.45;;;11.05;;
48767;SDS011;34933;40.968;14.538;2022-10-24T01:12:13;18.67;;;11.85;;
48767;SDS011;34933;40.968;14.538;2022-10-24T01:21:36;16.75;;;11.23;;
48767;SDS011;34933;40.968;14.538;2022-10-24T01:30:46;18.75;;;11.50;;
48767;SDS011;34933;40.968;14.538;2022-10-24T01:33:50;15.98;;;11.10;;
48767;SDS011;34933;40.968;14.538;2022-10-24T01:36:46;16.77;;;10.95;;
48767;SDS011;34933;40.968;14.538;2022-10-24T01:39:39;17.55;;;11.40;;
48767;SDS011;34933;40.968;14.538;2022-10-24T01:42:38;15.55;;;11.25;;
48767;SDS011;34933;40.968;14.538;2022-10-24T01:45:28;15.23;;;10.77;;
48767;SDS011;34933;40.968;14.538;2022-10-24T01:48:16;19.15;;;11.40;;
48767;SDS011;34933;40.968;14.538;2022-10-24T01:51:04;19.40;;;11.70;;
48767;SDS011;34933;40.968;14.538;2022-10-24T01:53:51;17.88;;;11.45;;
48767;SDS011;34933;40.968;14.538;2022-10-24T01:56:37;18.58;;;11.15;;
48767;SDS011;34933;40.968;14.538;2022-10-24T02:02:12;18.80;;;11.68;;
48767;SDS011;34933;40.968;14.538;2022-10-24T02:05:14;18.17;;;11.48;;
48767;SDS011;34933;40.968;14.538;2022-10-24T02:08:27;16.92;;;10.40;;
48767;SDS011;34933;40.968;14.538;2022-10-24T02:11:17;21.92;;;11.73;;
48767;SDS011;34933;40.968;14.538;2022-10-24T02:14:04;22.88;;;12.45;;
48767;SDS011;34933;40.968;14.538;2022-10-24T02:16:55;20.17;;;11.88;;
48767;SDS011;34933;40.968;14.538;2022-10-24T02:19:40;21.85;;;11.95;;
48767;SDS011;34933;40.968;14.538;2022-10-24T02:22:29;16.13;;;11.95;;
48767;SDS011;34933;40.968;14.538;2022-10-24T02:25:26;16.42;;;10.70;;
48767;SDS011;34933;40.968;14.538;2022-10-24T02:28:18;16.92;;;11.27;;
48767;SDS011;34933;40.968;14.538;2022-10-24T02:31:06;19.67;;;12.13;;
48767;SDS011;34933;40.968;14.538;2022-10-24T02:33:55;16.08;;;10.48;;
48767;SDS011;34933;40.968;14.538;2022-10-24T02:36:41;18.27;;;11.38;;
48767;SDS011;34933;40.968;14.538;2022-10-24T02:39:28;15.70;;;10.70;;
48767;SDS011;34933;40.968;14.538;2022-10-24T02:42:14;16.20;;;11.48;;
48767;SDS011;34933;40.968;14.538;2022-10-24T02:44:59;16.73;;;11.38;;
48767;SDS011;34933;40.968;14.538;2022-10-24T02:47:45;17.10;;;9.75;;
48767;SDS011;34933;40.968;14.538;2022-10-24T02:50:32;14.93;;;10.15;;
48767;SDS011;34933;40.968;14.538;2022-10-24T02:53:19;14.75;;;10.40;;
48767;SDS011;34933;40.968;14.538;2022-10-24T02:56:05;20.23;;;10.10;;
48767;SDS011;34933;40.968;14.538;2022-10-24T02:58:49;17.73;;;10.95;;
48767;SDS011;34933;40.968;14.538;2022-10-24T03:01:34;15.68;;;10.65;;
48767;SDS011;34933;40.968;14.538;2022-10-24T03:04:18;17.95;;;10.05;;
48767;SDS011;34933;40.968;14.538;2022-10-24T03:07:03;19.67;;;11.00;;
48767;SDS011;34933;40.968;14.538;2022-10-24T03:09:48;18.63;;;10.60;;
48767;SDS011;34933;40.968;14.538;2022-10-24T03:12:32;15.35;;;10.68;;
48767;SDS011;34933;40.968;14.538;2022-10-24T03:15:17;20.33;;;10.63;;
48767;SDS011;34933;40.968;14.538;2022-10-24T03:18:01;15.82;;;9.88;;
48767;SDS011;34933;40.968;14.538;2022-10-24T03:20:46;14.95;;;10.07;;
48767;SDS011;34933;40.968;14.538;2022-10-24T03:23:31;15.88;;;9.90;;
48767;SDS011;34933;40.968;14.538;2022-10-24T03:26:15;17.38;;;10.40;;
48767;SDS011;34933;40.968;14.538;2022-10-24T03:29:00;14.70;;;9.30;;
48767;SDS011;34933;40.968;14.538;2022-10-24T03:31:45;16.17;;;9.23;;
48767;SDS011;34933;40.968;14.538;2022-10-24T03:34:29;15.70;;;9.77;;
48767;SDS011;34933;40.968;14.538;2022-10-24T03:37:14;17.17;;;9.55;;
48767;SDS011;34933;40.968;14.538;2022-10-24T03:39:58;19.10;;;9.52;;
48767;SDS011;34933;40.968;14.538;2022-10-24T03:42:43;23.33;;;10.32;;
48767;SDS011;34933;40.968;14.538;2022-10-24T03:45:27;17.38;;;9.35;;
48767;SDS011;34933;40.968;14.538;2022-10-24T03:48:12;14.48;;;9.40;;
48767;SDS011;34933;40.968;14.538;2022-10-24T03:50:57;14.50;;;9.65;;
48767;SDS011;34933;40.968;14.538;2022-10-24T03:53:42;14.65;;;9.25;;
48767;SDS011;34933;40.968;14.538;2022-10-24T03:56:26;18.00;;;9.88;;
48767;SDS011;34933;40.968;14.538;2022-10-24T03:59:11;14.98;;;9.95;;
48767;SDS011;34933;40.968;14.538;2022-10-24T04:01:55;16.90;;;10.05;;
48767;SDS011;34933;40.968;14.538;2022-10-24T04:04:42;17.33;;;9.90;;
48767;SDS011;34933;40.968;14.538;2022-10-24T04:07:27;20.60;;;10.55;;
48767;SDS011;34933;40.968;14.538;2022-10-24T04:10:12;18.35;;;9.43;;
48767;SDS011;34933;40.968;14.538;2022-10-24T04:12:56;15.38;;;9.13;;
48767;SDS011;34933;40.968;14.538;2022-10-24T04:15:41;17.73;;;10.05;;
48767;SDS011;34933;40.968;14.538;2022-10-24T04:18:25;16.05;;;9.65;;
48767;SDS011;34933;40.968;14.538;2022-10-24T04:21:10;16.85;;;10.15;;
48767;SDS011;34933;40.968;14.538;2022-10-24T04:23:55;16.20;;;9.70;;
48767;SDS011;34933;40.968;14.538;2022-10-24T04:26:40;18.80;;;11.23;;
48767;SDS011;34933;40.968;14.538;2022-10-24T04:29:25;16.42;;;10.13;;
48767;SDS011;34933;40.968;14.538;2022-10-24T04:32:09;18.60;;;10.32;;
48767;SDS011;34933;40.968;14.538;2022-10-24T04:34:54;16.73;;;9.65;;
48767;SDS011;34933;40.968;14.538;2022-10-24T04:37:39;17.27;;;9.40;;
48767;SDS011;34933;40.968;14.538;2022-10-24T04:40:23;20.58;;;10.43;;
48767;SDS011;34933;40.968;14.538;2022-10-24T04:43:08;18.35;;;9.90;;
48767;SDS011;34933;40.968;14.538;2022-10-24T04:45:53;21.52;;;9.73;;
48767;SDS011;34933;40.968;14.538;2022-10-24T04:48:37;17.48;;;10.43;;
48767;SDS011;34933;40.968;14.538;2022-10-24T04:51:22;12.32;;;9.35;;
48767;SDS011;34933;40.968;14.538;2022-10-24T04:54:07;15.68;;;9.93;;
48767;SDS011;34933;40.968;14.538;2022-10-24T04:56:51;15.63;;;9.30;;
48767;SDS011;34933;40.968;14.538;2022-10-24T04:59:36;17.58;;;9.80;;
48767;SDS011;34933;40.968;14.538;2022-10-24T05:02:21;17.08;;;10.48;;
48767;SDS011;34933;40.968;14.538;2022-10-24T05:05:06;14.43;;;9.55;;
48767;SDS011;34933;40.968;14.538;2022-10-24T05:07:51;13.77;;;10.18;;
48767;SDS011;34933;40.968;14.538;2022-10-24T05:10:36;17.88;;;9.82;;
48767;SDS011;34933;40.968;14.538;2022-10-24T05:13:20;17.05;;;10.05;;
48767;SDS011;34933;40.968;14.538;2022-10-24T05:16:05;16.95;;;9.98;;
48767;SDS011;34933;40.968;14.538;2022-10-24T05:18:49;19.38;;;10.60;;
48767;SDS011;34933;40.968;14.538;2022-10-24T05:21:34;18.38;;;11.73;;
48767;SDS011;34933;40.968;14.538;2022-10-24T05:24:18;14.35;;;10.15;;
48767;SDS011;34933;40.968;14.538;2022-10-24T05:27:03;22.73;;;10.95;;
48767;SDS011;34933;40.968;14.538;2022-10-24T05:29:48;28.52;;;11.77;;
48767;SDS011;34933;40.968;14.538;2022-10-24T05:32:36;30.20;;;12.05;;
48767;SDS011;34933;40.968;14.538;2022-10-24T05:35:20;15.68;;;10.75;;
48767;SDS011;34933;40.968;14.538;2022-10-24T05:38:05;23.83;;;10.80;;
48767;SDS011;34933;40.968;14.538;2022-10-24T05:40:49;25.98;;;11.38;;
48767;SDS011;34933;40.968;14.538;2022-10-24T05:43:34;21.25;;;10.90;;
48767;SDS011;34933;40.968;14.538;2022-10-24T05:46:18;19.55;;;9.95;;
48767;SDS011;34933;40.968;14.538;2022-10-24T05:49:04;21.10;;;10.35;;
48767;SDS011;34933;40.968;14.538;2022-10-24T05:51:48;16.05;;;9.70;;
48767;SDS011;34933;40.968;14.538;2022-10-24T05:54:33;20.10;;;10.57;;
48767;SDS011;34933;40.968;14.538;2022-10-24T05:57:17;20.88;;;10.98;;
48767;SDS011;34933;40.968;14.538;2022-10-24T06:00:05;22.70;;;9.82;;
48767;SDS011;34933;40.968;14.538;2022-10-24T06:02:55;13.95;;;9.38;;
48767;SDS011;34933;40.968;14.538;2022-10-24T06:05:39;18.27;;;10.80;;
48767;SDS011;34933;40.968;14.538;2022-10-24T06:08:24;24.48;;;12.82;;
48767;SDS011;34933;40.968;14.538;2022-10-24T06:11:09;19.35;;;10.88;;
48767;SDS011;34933;40.968;14.538;2022-10-24T06:13:54;19.38;;;12.00;;
48767;SDS011;34933;40.968;14.538;2022-10-24T06:16:38;18.58;;;10.77;;
48767;SDS011;34933;40.968;14.538;2022-10-24T06:19:23;24.77;;;10.85;;
48767;SDS011;34933;40.968;14.538;2022-10-24T06:22:07;23.17;;;11.52;;
48767;SDS011;34933;40.968;14.538;2022-10-24T06:24:52;22.33;;;10.07;;
48767;SDS011;34933;40.968;14.538;2022-10-24T06:27:37;20.98;;;10.98;;
48767;SDS011;34933;40.968;14.538;2022-10-24T06:30:22;19.75;;;9.95;;
48767;SDS011;34933;40.968;14.538;2022-10-24T06:33:07;20.13;;;10.52;;
48767;SDS011;34933;40.968;14.538;2022-10-24T06:35:52;21.83;;;9.10;;
48767;SDS011;34933;40.968;14.538;2022-10-24T06:38:37;17.20;;;8.70;;
48767;SDS011;34933;40.968;14.538;2022-10-24T06:41:21;16.52;;;10.23;;
48767;SDS011;34933;40.968;14.538;2022-10-24T06:44:06;21.60;;;9.52;;
48767;SDS011;34933;40.968;14.538;2022-10-24T06:46:51;26.77;;;9.10;;
48767;SDS011;34933;40.968;14.538;2022-10-24T06:49:36;20.92;;;9.38;;
48767;SDS011;34933;40.968;14.538;2022-10-24T06:52:20;19.35;;;9.27;;
48767;SDS011;34933;40.968;14.538;2022-10-24T06:55:05;19.00;;;9.40;;
48767;SDS011;34933;40.968;14.538;2022-10-24T06:57:51;17.15;;;8.65;;
48767;SDS011;34933;40.968;14.538;2022-10-24T07:00:36;20.55;;;8.23;;
48767;SDS011;34933;40.968;14.538;2022-10-24T07:03:21;21.13;;;9.10;;
48767;SDS011;34933;40.968;14.538;2022-10-24T07:06:09;11.60;;;6.22;;
48767;SDS011;34933;40.968;14.538;2022-10-24T07:11:43;20.17;;;7.35;;
48767;SDS011;34933;40.968;14.538;2022-10-24T07:14:29;18.55;;;6.10;;
48767;SDS011;34933;40.968;14.538;2022-10-24T07:17:14;16.75;;;6.05;;
48767;SDS011;34933;40.968;14.538;2022-10-24T07:19:59;20.00;;;6.50;;
48767;SDS011;34933;40.968;14.538;2022-10-24T07:22:43;25.23;;;9.48;;
48767;SDS011;34933;40.968;14.538;2022-10-24T07:25:28;17.02;;;8.40;;
48767;SDS011;34933;40.968;14.538;2022-10-24T07:28:12;18.65;;;10.82;;
48767;SDS011;34933;40.968;14.538;2022-10-24T07:30:57;25.05;;;13.30;;
48767;SDS011;34933;40.968;14.538;2022-10-24T07:33:43;21.17;;;12.90;;
48767;SDS011;34933;40.968;14.538;2022-10-24T07:36:27;23.60;;;11.50;;
48767;SDS011;34933;40.968;14.538;2022-10-24T07:39:13;25.95;;;12.40;;
48767;SDS011;34933;40.968;14.538;2022-10-24T07:41:57;24.70;;;14.15;;
48767;SDS011;34933;40.968;14.538;2022-10-24T07:44:42;25.27;;;13.48;;
48767;SDS011;34933;40.968;14.538;2022-10-24T07:47:27;27.55;;;14.68;;
48767;SDS011;34933;40.968;14.538;2022-10-24T07:50:12;30.95;;;15.25;;
48767;SDS011;34933;40.968;14.538;2022-10-24T07:53:00;29.45;;;13.95;;
48767;SDS011;34933;40.968;14.538;2022-10-24T07:55:45;25.05;;;15.18;;
48767;SDS011;34933;40.968;14.538;2022-10-24T07:58:29;27.83;;;16.00;;
48767;SDS011;34933;40.968;14.538;2022-10-24T08:01:15;24.63;;;16.35;;
48767;SDS011;34933;40.968;14.538;2022-10-24T08:04:02;33.78;;;20.48;;
48767;SDS011;34933;40.968;14.538;2022-10-24T08:06:46;30.00;;;17.05;;
48767;SDS011;34933;40.968;14.538;2022-10-24T08:09:31;25.98;;;16.88;;
48767;SDS011;34933;40.968;14.538;2022-10-24T08:12:20;23.92;;;16.80;;
48767;SDS011;34933;40.968;14.538;2022-10-24T08:15:05;29.50;;;16.70;;
48767;SDS011;34933;40.968;14.538;2022-10-24T08:17:49;24.13;;;15.60;;
48767;SDS011;34933;40.968;14.538;2022-10-24T08:20:34;25.80;;;15.75;;
48767;SDS011;34933;40.968;14.538;2022-10-24T08:23:18;26.73;;;16.52;;
48767;SDS011;34933;40.968;14.538;2022-10-24T08:26:04;28.75;;;19.65;;
48767;SDS011;34933;40.968;14.538;2022-10-24T08:28:49;31.08;;;20.13;;
48767;SDS011;34933;40.968;14.538;2022-10-24T08:31:34;25.13;;;18.42;;
48767;SDS011;34933;40.968;14.538;2022-10-24T08:34:19;30.17;;;21.17;;
48767;SDS011;34933;40.968;14.538;2022-10-24T08:37:04;30.67;;;20.20;;
48767;SDS011;34933;40.968;14.538;2022-10-24T08:39:49;24.55;;;17.35;;
48767;SDS011;34933;40.968;14.538;2022-10-24T08:42:33;28.63;;;18.50;;
48767;SDS011;34933;40.968;14.538;2022-10-24T08:48:13;26.95;;;17.83;;
48767;SDS011;34933;40.968;14.538;2022-10-24T08:51:21;22.52;;;16.15;;
48767;SDS011;34933;40.968;14.538;2022-10-24T08:54:16;27.08;;;14.02;;
48767;SDS011;34933;40.968;14.538;2022-10-24T08:57:05;21.70;;;14.15;;
48767;SDS011;34933;40.968;14.538;2022-10-24T08:59:53;20.27;;;12.07;;
48767;SDS011;34933;40.968;14.538;2022-10-24T09:02:42;21.65;;;13.15;;
48767;SDS011;34933;40.968;14.538;2022-10-24T09:05:44;23.25;;;13.77;;
48767;SDS011;34933;40.968;14.538;2022-10-24T09:08:42;17.77;;;10.43;;
48767;SDS011;34933;40.968;14.538;2022-10-24T09:15:16;15.07;;;8.15;;
48767;SDS011;34933;40.968;14.538;2022-10-24T09:18:21;17.88;;;9.55;;
48767;SDS011;34933;40.968;14.538;2022-10-24T09:21:12;25.00;;;13.98;;
48767;SDS011;34933;40.968;14.538;2022-10-24T09:23:58;31.42;;;17.02;;
48767;SDS011;34933;40.968;14.538;2022-10-24T09:26:44;28.83;;;16.70;;
48767;SDS011;34933;40.968;14.538;2022-10-24T09:29:29;45.60;;;24.52;;
48767;SDS011;34933;40.968;14.538;2022-10-24T09:32:16;42.03;;;23.90;;
48767;SDS011;34933;40.968;14.538;2022-10-24T09:35:05;41.97;;;23.67;;
48767;SDS011;34933;40.968;14.538;2022-10-24T09:37:56;31.98;;;18.30;;
48767;SDS011;34933;40.968;14.538;2022-10-24T09:40:42;34.85;;;20.95;;
48767;SDS011;34933;40.968;14.538;2022-10-24T09:46:25;34.20;;;21.05;;
48767;SDS011;34933;40.968;14.538;2022-10-24T09:52:16;34.75;;;18.95;;
48767;SDS011;34933;40.968;14.538;2022-10-24T09:58:13;22.65;;;15.90;;
48767;SDS011;34933;40.968;14.538;2022-10-24T10:01:04;22.95;;;15.68;;
48767;SDS011;34933;40.968;14.538;2022-10-24T10:03:59;22.55;;;14.70;;
48767;SDS011;34933;40.968;14.538;2022-10-24T10:06:48;21.40;;;16.20;;
48767;SDS011;34933;40.968;14.538;2022-10-24T10:09:33;22.63;;;15.07;;
48767;SDS011;34933;40.968;14.538;2022-10-24T10:18:41;20.13;;;12.48;;
48767;SDS011;34933;40.968;14.538;2022-10-24T10:21:25;24.05;;;12.32;;
48767;SDS011;34933;40.968;14.538;2022-10-24T10:24:22;19.15;;;9.65;;
48767;SDS011;34933;40.968;14.538;2022-10-24T10:27:49;15.15;;;9.57;;
48767;SDS011;34933;40.968;14.538;2022-10-24T10:30:32;20.40;;;10.82;;
48767;SDS011;34933;40.968;14.538;2022-10-24T10:36:15;20.50;;;11.20;;
48767;SDS011;34933;40.968;14.538;2022-10-24T10:42:33;14.73;;;8.60;;
48767;SDS011;34933;40.968;14.538;2022-10-24T10:48:33;13.20;;;7.57;;
48767;SDS011;34933;40.968;14.538;2022-10-24T10:54:34;11.82;;;6.82;;
48767;SDS011;34933;40.968;14.538;2022-10-24T11:01:36;13.38;;;9.70;;
48767;SDS011;34933;40.968;14.538;2022-10-24T11:04:20;20.67;;;8.88;;
48767;SDS011;34933;40.968;14.538;2022-10-24T11:07:43;14.55;;;8.38;;
48767;SDS011;34933;40.968;14.538;2022-10-24T11:10:42;13.00;;;8.15;;
48767;SDS011;34933;40.968;14.538;2022-10-24T11:13:44;13.77;;;8.90;;
48767;SDS011;34933;40.968;14.538;2022-10-24T11:16:40;17.33;;;8.80;;
48767;SDS011;34933;40.968;14.538;2022-10-24T11:19:27;14.18;;;7.25;;
48767;SDS011;34933;40.968;14.538;2022-10-24T11:22:23;15.02;;;7.53;;
48767;SDS011;34933;40.968;14.538;2022-10-24T11:28:02;14.73;;;6.88;;
48767;SDS011;34933;40.968;14.538;2022-10-24T11:31:26;10.40;;;6.45;;
48767;SDS011;34933;40.968;14.538;2022-10-24T11:37:20;11.63;;;6.40;;
48767;SDS011;34933;40.968;14.538;2022-10-24T11:40:21;19.10;;;5.90;;
48767;SDS011;34933;40.968;14.538;2022-10-24T11:43:26;8.50;;;5.13;;
48767;SDS011;34933;40.968;14.538;2022-10-24T11:46:17;9.40;;;5.18;;
48767;SDS011;34933;40.968;14.538;2022-10-24T11:49:17;8.80;;;4.23;;
48767;SDS011;34933;40.968;14.538;2022-10-24T11:52:20;9.82;;;5.07;;
48767;SDS011;34933;40.968;14.538;2022-10-24T11:55:17;13.10;;;5.25;;
48767;SDS011;34933;40.968;14.538;2022-10-24T11:58:11;12.07;;;6.32;;
48767;SDS011;34933;40.968;14.538;2022-10-24T12:03:54;13.30;;;6.68;;
48767;SDS011;34933;40.968;14.538;2022-10-24T12:10:03;14.43;;;6.22;;
48767;SDS011;34933;40.968;14.538;2022-10-24T12:19:09;15.48;;;7.38;;
48767;SDS011;34933;40.968;14.538;2022-10-24T12:21:58;14.20;;;6.88;;
48767;SDS011;34933;40.968;14.538;2022-10-24T12:24:45;14.57;;;6.85;;
48767;SDS011;34933;40.968;14.538;2022-10-24T12:27:31;10.80;;;5.80;;
48767;SDS011;34933;40.968;14.538;2022-10-24T12:30:20;14.23;;;5.43;;
48767;SDS011;34933;40.968;14.538;2022-10-24T12:33:08;11.50;;;6.00;;
48767;SDS011;34933;40.968;14.538;2022-10-24T12:36:10;9.32;;;5.32;;
48767;SDS011;34933;40.968;14.538;2022-10-24T12:41:40;11.82;;;6.03;;
48767;SDS011;34933;40.968;14.538;2022-10-24T12:47:38;13.45;;;8.25;;
48767;SDS011;34933;40.968;14.538;2022-10-24T12:53:16;17.25;;;8.60;;
48767;SDS011;34933;40.968;14.538;2022-10-24T12:56:07;19.02;;;8.85;;
48767;SDS011;34933;40.968;14.538;2022-10-24T13:14:31;13.98;;;10.35;;
48767;SDS011;34933;40.968;14.538;2022-10-24T13:20:47;21.73;;;16.63;;
48767;SDS011;34933;40.968;14.538;2022-10-24T13:23:48;23.20;;;12.93;;
48767;SDS011;34933;40.968;14.538;2022-10-24T13:26:38;17.08;;;12.38;;
48767;SDS011;34933;40.968;14.538;2022-10-24T13:34:58;18.90;;;13.65;;
48767;SDS011;34933;40.968;14.538;2022-10-24T13:37:46;16.92;;;13.35;;
48767;SDS011;34933;40.968;14.538;2022-10-24T13:40:34;25.05;;;14.63;;
48767;SDS011;34933;40.968;14.538;2022-10-24T13:43:19;19.83;;;16.15;;
48767;SDS011;34933;40.968;14.538;2022-10-24T13:46:04;19.83;;;14.73;;
48767;SDS011;34933;40.968;14.538;2022-10-24T13:48:52;28.88;;;16.65;;
48767;SDS011;34933;40.968;14.538;2022-10-24T13:51:41;20.65;;;15.60;;
48767;SDS011;34933;40.968;14.538;2022-10-24T13:54:32;25.35;;;15.15;;
48767;SDS011;34933;40.968;14.538;2022-10-24T13:57:27;18.27;;;13.23;;
48767;SDS011;34933;40.968;14.538;2022-10-24T14:00:18;17.00;;;12.30;;
48767;SDS011;34933;40.968;14.538;2022-10-24T14:03:15;17.95;;;14.18;;
48767;SDS011;34933;40.968;14.538;2022-10-24T14:06:03;19.70;;;13.23;;
48767;SDS011;34933;40.968;14.538;2022-10-24T14:08:51;15.57;;;13.35;;
48767;SDS011;34933;40.968;14.538;2022-10-24T14:11:40;22.63;;;15.15;;
48767;SDS011;34933;40.968;14.538;2022-10-24T14:14:37;18.33;;;13.82;;
48767;SDS011;34933;40.968;14.538;2022-10-24T14:17:27;15.90;;;12.50;;
48767;SDS011;34933;40.968;14.538;2022-10-24T14:20:23;22.73;;;12.65;;
48767;SDS011;34933;40.968;14.538;2022-10-24T14:29:03;19.13;;;10.25;;
48767;SDS011;34933;40.968;14.538;2022-10-24T14:31:58;15.73;;;10.18;;
48767;SDS011;34933;40.968;14.538;2022-10-24T14:34:45;16.10;;;10.05;;
48767;SDS011;34933;40.968;14.538;2022-10-24T14:37:33;17.23;;;10.35;;
48767;SDS011;34933;40.968;14.538;2022-10-24T14:40:19;17.05;;;11.15;;
48767;SDS011;34933;40.968;14.538;2022-10-24T14:43:04;16.67;;;11.15;;
48767;SDS011;34933;40.968;14.538;2022-10-24T14:48:52;14.27;;;10.55;;
48767;SDS011;34933;40.968;14.538;2022-10-24T14:51:37;16.55;;;10.38;;
48767;SDS011;34933;40.968;14.538;2022-10-24T14:54:26;16.52;;;10.65;;
48767;SDS011;34933;40.968;14.538;2022-10-24T15:00:04;19.13;;;10.85;;
48767;SDS011;34933;40.968;14.538;2022-10-24T15:02:55;18.20;;;9.80;;
48767;SDS011;34933;40.968;14.538;2022-10-24T15:05:41;14.35;;;9.82;;
48767;SDS011;34933;40.968;14.538;2022-10-24T15:08:36;15.45;;;10.43;;
48767;SDS011;34933;40.968;14.538;2022-10-24T15:11:23;23.23;;;11.40;;
48767;SDS011;34933;40.968;14.538;2022-10-24T15:14:31;18.15;;;10.63;;
48767;SDS011;34933;40.968;14.538;2022-10-24T15:17:25;13.10;;;11.02;;
48767;SDS011;34933;40.968;14.538;2022-10-24T15:20:12;14.80;;;10.80;;
48767;SDS011;34933;40.968;14.538;2022-10-24T15:23:01;16.27;;;11.30;;
48767;SDS011;34933;40.968;14.538;2022-10-24T15:25:55;16.77;;;11.02;;
48767;SDS011;34933;40.968;14.538;2022-10-24T15:31:46;15.93;;;12.88;;
48767;SDS011;34933;40.968;14.538;2022-10-24T15:34:32;26.98;;;16.08;;
48767;SDS011;34933;40.968;14.538;2022-10-24T15:37:21;24.95;;;17.25;;
48767;SDS011;34933;40.968;14.538;2022-10-24T15:40:15;21.13;;;15.52;;
48767;SDS011;34933;40.968;14.538;2022-10-24T15:43:03;22.25;;;15.45;;
48767;SDS011;34933;40.968;14.538;2022-10-24T15:45:48;18.75;;;15.65;;
48767;SDS011;34933;40.968;14.538;2022-10-24T15:48:34;21.90;;;15.93;;
48767;SDS011;34933;40.968;14.538;2022-10-24T15:51:20;23.63;;;16.38;;
48767;SDS011;34933;40.968;14.538;2022-10-24T15:54:09;27.88;;;19.27;;
48767;SDS011;34933;40.968;14.538;2022-10-24T15:56:55;35.05;;;23.65;;
48767;SDS011;34933;40.968;14.538;2022-10-24T15:59:40;37.55;;;27.83;;
48767;SDS011;34933;40.968;14.538;2022-10-24T16:02:25;38.83;;;26.00;;
48767;SDS011;34933;40.968;14.538;2022-10-24T16:05:15;25.90;;;19.90;;
48767;SDS011;34933;40.968;14.538;2022-10-24T16:08:01;25.88;;;20.95;;
48767;SDS011;34933;40.968;14.538;2022-10-24T16:10:47;32.65;;;21.20;;
48767;SDS011;34933;40.968;14.538;2022-10-24T16:13:33;31.58;;;21.77;;
48767;SDS011;34933;40.968;14.538;2022-10-24T16:16:18;31.25;;;23.95;;
48767;SDS011;34933;40.968;14.538;2022-10-24T16:19:02;31.42;;;21.33;;
48767;SDS011;34933;40.968;14.538;2022-10-24T16:21:47;30.60;;;21.35;;
48767;SDS011;34933;40.968;14.538;2022-10-24T16:24:32;31.00;;;24.20;;
48767;SDS011;34933;40.968;14.538;2022-10-24T16:27:17;32.85;;;24.75;;
48767;SDS011;34933;40.968;14.538;2022-10-24T16:30:02;31.83;;;25.65;;
48767;SDS011;34933;40.968;14.538;2022-10-24T16:32:47;36.33;;;26.30;;
48767;SDS011;34933;40.968;14.538;2022-10-24T16:35:33;35.30;;;27.23;;
48767;SDS011;34933;40.968;14.538;2022-10-24T16:38:19;35.28;;;26.13;;
48767;SDS011;34933;40.968;14.538;2022-10-24T16:41:04;35.70;;;24.55;;
48767;SDS011;34933;40.968;14.538;2022-10-24T16:43:49;32.78;;;25.67;;
48767;SDS011;34933;40.968;14.538;2022-10-24T16:46:38;42.50;;;29.92;;
48767;SDS011;34933;40.968;14.538;2022-10-24T16:49:22;53.50;;;34.45;;
48767;SDS011;34933;40.968;14.538;2022-10-24T16:52:07;58.58;;;39.03;;
48767;SDS011;34933;40.968;14.538;2022-10-24T16:54:52;55.75;;;36.35;;
48767;SDS011;34933;40.968;14.538;2022-10-24T16:57:37;64.57;;;42.63;;
48767;SDS011;34933;40.968;14.538;2022-10-24T17:00:22;70.80;;;42.80;;
48767;SDS011;34933;40.968;14.538;2022-10-24T17:03:07;52.15;;;34.28;;
48767;SDS011;34933;40.968;14.538;2022-10-24T17:05:51;66.22;;;39.38;;
48767;SDS011;34933;40.968;14.538;2022-10-24T17:08:36;64.15;;;38.30;;
48767;SDS011;34933;40.968;14.538;2022-10-24T17:11:21;49.30;;;34.00;;
48767;SDS011;34933;40.968;14.538;2022-10-24T17:14:06;65.15;;;38.85;;
48767;SDS011;34933;40.968;14.538;2022-10-24T17:16:51;47.65;;;31.85;;
48767;SDS011;34933;40.968;14.538;2022-10-24T17:19:37;51.72;;;34.40;;
48767;SDS011;34933;40.968;14.538;2022-10-24T17:22:22;53.78;;;32.03;;
48767;SDS011;34933;40.968;14.538;2022-10-24T17:25:09;58.55;;;33.92;;
48767;SDS011;34933;40.968;14.538;2022-10-24T17:28:03;51.10;;;31.58;;
48767;SDS011;34933;40.968;14.538;2022-10-24T17:30:48;34.38;;;25.00;;
48767;SDS011;34933;40.968;14.538;2022-10-24T17:33:32;48.25;;;31.48;;
48767;SDS011;34933;40.968;14.538;2022-10-24T17:36:24;49.90;;;34.15;;
48767;SDS011;34933;40.968;14.538;2022-10-24T17:39:11;52.22;;;34.10;;
48767;SDS011;34933;40.968;14.538;2022-10-24T17:42:03;50.45;;;32.85;;
48767;SDS011;34933;40.968;14.538;2022-10-24T17:44:50;48.33;;;31.65;;
48767;SDS011;34933;40.968;14.538;2022-10-24T17:47:35;51.72;;;34.15;;
48767;SDS011;34933;40.968;14.538;2022-10-24T17:50:20;53.67;;;39.83;;
48767;SDS011;34933;40.968;14.538;2022-10-24T17:53:05;39.92;;;31.85;;
48767;SDS011;34933;40.968;14.538;2022-10-24T17:55:50;48.03;;;32.78;;
48767;SDS011;34933;40.968;14.538;2022-10-24T17:58:35;43.42;;;31.98;;
48767;SDS011;34933;40.968;14.538;2022-10-24T18:01:20;43.33;;;32.33;;
48767;SDS011;34933;40.968;14.538;2022-10-24T18:04:05;55.15;;;34.65;;
48767;SDS011;34933;40.968;14.538;2022-10-24T18:06:50;52.75;;;36.95;;
48767;SDS011;34933;40.968;14.538;2022-10-24T18:09:35;67.55;;;38.95;;
48767;SDS011;34933;40.968;14.538;2022-10-24T18:12:21;56.65;;;40.13;;
48767;SDS011;34933;40.968;14.538;2022-10-24T18:15:09;60.08;;;38.45;;
48767;SDS011;34933;40.968;14.538;2022-10-24T18:17:55;59.42;;;37.30;;
48767;SDS011;34933;40.968;14.538;2022-10-24T18:20:39;56.83;;;35.72;;
48767;SDS011;34933;40.968;14.538;2022-10-24T18:23:24;66.28;;;40.03;;